createdAt,value
2018-11-27T00:00:50.401Z,3.30
2018-11-27T00:03:20.005Z,3.30
2018-11-27T00:05:50.902Z,3.30
2018-11-27T00:08:22.801Z,3.20
2018-11-27T00:10:56.936Z,3.20
2018-11-27T00:13:26.256Z,3.20
2018-11-27T00:15:56.333Z,3.20
2018-11-27T00:18:25.596Z,3.20
2018-11-27T00:20:59.334Z,3.20
2018-11-27T00:23:28.940Z,3.20
2018-11-27T00:25:58.205Z,3.20
2018-11-27T00:28:28.731Z,3.20
2018-11-27T00:30:58.581Z,3.20
2018-11-27T00:33:28.124Z,3.20
2018-11-27T00:35:57.391Z,3.20
2018-11-27T00:38:27.585Z,3.20
2018-11-27T00:40:59.319Z,3.10
2018-11-27T00:43:28.687Z,3.10
2018-11-27T00:45:59.371Z,3.10
2018-11-27T00:48:29.310Z,3.10
2018-11-27T00:50:58.733Z,3.20
2018-11-27T00:53:28.010Z,3.20
2018-11-27T00:55:58.230Z,3.20
2018-11-27T00:58:27.591Z,3.20
2018-11-27T01:00:59.294Z,3.20
2018-11-27T01:03:29.241Z,3.20
2018-11-27T01:05:58.729Z,3.20
2018-11-27T01:08:28.416Z,3.20
2018-11-27T01:11:04.099Z,3.20
2018-11-27T01:13:33.666Z,3.20
2018-11-27T01:16:03.068Z,3.20
2018-11-27T01:18:32.393Z,3.20
2018-11-27T01:21:01.639Z,3.10
2018-11-27T01:23:31.144Z,3.10
2018-11-27T01:26:00.555Z,3.10
2018-11-27T01:28:31.154Z,3.00
2018-11-27T01:31:01.405Z,3.00
2018-11-27T01:33:30.814Z,3.00
2018-11-27T01:36:00.150Z,3.00
2018-11-27T01:38:29.406Z,3.00
2018-11-27T01:40:58.830Z,3.00
2018-11-27T01:43:32.914Z,3.00
2018-11-27T01:46:02.214Z,2.90
2018-11-27T01:48:32.285Z,2.90
2018-11-27T01:51:01.926Z,2.90
2018-11-27T01:53:31.198Z,2.90
2018-11-27T01:56:00.753Z,2.90
2018-11-27T01:58:36.908Z,2.90
2018-11-27T02:01:06.560Z,2.90
2018-11-27T02:03:35.896Z,2.90
2018-11-27T02:06:05.385Z,2.90
2018-11-27T02:08:35.040Z,2.90
2018-11-27T02:11:04.492Z,2.80
2018-11-27T02:13:33.974Z,2.80
2018-11-27T02:16:03.391Z,2.80
2018-11-27T02:18:33.987Z,2.70
2018-11-27T02:21:03.300Z,2.70
2018-11-27T02:23:32.549Z,2.70
2018-11-27T02:26:01.889Z,2.70
2018-11-27T02:28:35.384Z,2.70
2018-11-27T02:31:04.738Z,2.60
2018-11-27T02:33:34.073Z,2.70
2018-11-27T02:36:03.547Z,2.60
2018-11-27T02:38:32.835Z,2.60
2018-11-27T02:41:02.096Z,2.60
2018-11-27T02:43:31.627Z,2.60
2018-11-27T02:46:00.977Z,2.60
2018-11-27T02:48:30.414Z,2.60
2018-11-27T02:50:59.776Z,2.50
2018-11-27T02:53:30.416Z,2.50
2018-11-27T02:55:59.739Z,2.50
2018-11-27T02:58:29.120Z,2.50
2018-11-27T03:00:58.445Z,2.40
2018-11-27T03:03:27.701Z,2.40
2018-11-27T03:05:57.084Z,2.30
2018-11-27T03:08:26.663Z,2.30
2018-11-27T03:10:57.048Z,2.30
2018-11-27T03:13:26.545Z,2.30
2018-11-27T03:15:55.787Z,2.20
2018-11-27T03:18:25.612Z,2.20
2018-11-27T03:20:54.866Z,2.20
2018-11-27T03:23:24.056Z,2.20
2018-11-27T03:25:53.596Z,2.10
2018-11-27T03:28:23.189Z,2.00
2018-11-27T03:30:52.647Z,2.00
2018-11-27T03:33:24.950Z,1.90
2018-11-27T03:35:54.244Z,1.90
2018-11-27T03:38:23.641Z,1.90
2018-11-27T03:40:53.038Z,1.80
2018-11-27T03:43:22.374Z,1.80
2018-11-27T03:45:51.750Z,1.70
2018-11-27T03:48:21.255Z,1.70
2018-11-27T03:50:50.705Z,1.70
2018-11-27T03:53:20.229Z,1.60
2018-11-27T03:55:50.045Z,1.60
2018-11-27T03:58:19.481Z,1.60
2018-11-27T04:00:48.845Z,1.60
2018-11-27T04:03:18.124Z,1.60
2018-11-27T04:05:47.260Z,1.60
2018-11-27T04:08:16.764Z,1.70
2018-11-27T04:10:45.905Z,1.70
2018-11-27T04:13:15.117Z,1.80
2018-11-27T04:15:44.275Z,1.90
2018-11-27T04:18:14.104Z,1.80
2018-11-27T04:20:43.254Z,1.90
2018-11-27T04:23:12.727Z,1.90
2018-11-27T04:25:41.869Z,2.00
2018-11-27T04:28:11.069Z,2.00
2018-11-27T04:30:40.245Z,2.10
2018-11-27T04:33:09.782Z,2.10
2018-11-27T04:35:38.986Z,2.20
2018-11-27T04:38:08.396Z,2.20
2018-11-27T04:40:37.789Z,2.20
2018-11-27T04:43:07.412Z,2.20
2018-11-27T04:45:36.594Z,2.20
2018-11-27T04:48:08.728Z,2.30
2018-11-27T04:50:39.198Z,2.30
2018-11-27T04:53:08.427Z,2.30
2018-11-27T04:55:37.672Z,2.40
2018-11-27T04:58:11.414Z,2.40
2018-11-27T05:00:40.695Z,2.50
2018-11-27T05:03:09.887Z,2.50
2018-11-27T05:05:39.054Z,2.60
2018-11-27T05:08:08.252Z,2.60
2018-11-27T05:10:37.368Z,2.70
2018-11-27T05:13:07.015Z,2.70
2018-11-27T05:15:40.560Z,2.80
2018-11-27T05:18:10.331Z,2.80
2018-11-27T05:20:39.576Z,2.80
2018-11-27T05:23:08.881Z,2.80
2018-11-27T05:25:38.339Z,2.90
2018-11-27T05:28:07.606Z,2.90
2018-11-27T05:30:42.008Z,2.90
2018-11-27T05:33:12.158Z,2.90
2018-11-27T05:35:41.284Z,2.90
2018-11-27T05:38:10.961Z,2.90
2018-11-27T05:40:40.100Z,3.00
2018-11-27T05:43:10.549Z,3.00
2018-11-27T05:45:41.169Z,3.00
2018-11-27T05:48:10.360Z,3.00
2018-11-27T05:50:39.620Z,3.00
2018-11-27T05:53:08.901Z,3.00
2018-11-27T05:55:40.350Z,3.00
2018-11-27T05:58:09.951Z,3.10
2018-11-27T06:00:39.283Z,3.10
2018-11-27T06:03:10.260Z,3.10
2018-11-27T06:05:41.058Z,3.10
2018-11-27T06:08:11.339Z,3.10
2018-11-27T06:10:41.250Z,3.10
2018-11-27T06:13:19.424Z,3.10
2018-11-27T06:15:48.769Z,3.10
2018-11-27T06:18:18.105Z,3.10
2018-11-27T06:20:51.382Z,3.10
2018-11-27T06:23:20.633Z,3.10
2018-11-27T06:25:49.813Z,3.10
2018-11-27T06:28:20.423Z,3.10
2018-11-27T06:30:50.394Z,3.20
2018-11-27T06:33:20.504Z,3.20
2018-11-27T06:35:50.103Z,3.20
2018-11-27T06:38:19.300Z,3.20
2018-11-27T06:40:48.455Z,3.20
2018-11-27T06:43:17.639Z,3.20
2018-11-27T06:45:49.071Z,3.20
2018-11-27T06:48:18.312Z,3.20
2018-11-27T06:50:48.193Z,3.20
2018-11-27T06:53:17.472Z,3.20
2018-11-27T06:55:48.038Z,3.30
2018-11-27T06:58:17.401Z,3.30
2018-11-27T07:00:46.618Z,3.30
2018-11-27T07:03:16.183Z,3.30
2018-11-27T07:05:55.889Z,3.30
2018-11-27T07:08:25.623Z,3.30
2018-11-27T07:10:54.809Z,3.30
2018-11-27T07:13:25.515Z,3.40
2018-11-27T07:15:54.855Z,3.30
2018-11-27T07:18:24.034Z,3.40
2018-11-27T07:20:54.453Z,3.40
2018-11-27T07:23:23.678Z,3.40
2018-11-27T07:25:52.868Z,3.40
2018-11-27T07:28:22.028Z,3.30
2018-11-27T07:31:05.482Z,3.40
2018-11-27T07:33:35.908Z,3.30
2018-11-27T07:36:05.189Z,3.30
2018-11-27T07:38:35.799Z,3.30
2018-11-27T07:41:04.992Z,3.30
2018-11-27T07:43:34.168Z,3.40
2018-11-27T07:46:03.364Z,3.40
2018-11-27T07:48:50.242Z,3.40
2018-11-27T07:51:19.558Z,3.50
2018-11-27T07:53:49.425Z,3.40
2018-11-27T07:56:19.562Z,3.40
2018-11-27T07:58:49.584Z,3.40
2018-11-27T08:01:18.868Z,3.40
2018-11-27T08:03:50.568Z,3.40
2018-11-27T08:06:19.782Z,3.40
2018-11-27T08:08:48.999Z,3.40
2018-11-27T08:11:18.184Z,3.50
2018-11-27T08:13:48.682Z,3.50
2018-11-27T08:16:17.958Z,3.50
2018-11-27T08:18:47.214Z,3.50
2018-11-27T08:21:17.054Z,3.60
2018-11-27T08:23:47.655Z,3.60
2018-11-27T08:26:16.844Z,3.60
2018-11-27T08:28:46.243Z,3.70
2018-11-27T08:31:15.475Z,3.70
2018-11-27T08:33:44.682Z,3.70
2018-11-27T08:36:13.884Z,3.80
2018-11-27T08:38:43.082Z,3.80
2018-11-27T08:41:12.273Z,3.80
2018-11-27T08:43:41.505Z,3.90
2018-11-27T08:46:10.912Z,3.90
2018-11-27T08:48:44.191Z,3.90
2018-11-27T08:51:16.801Z,3.90
2018-11-27T08:53:47.797Z,4.00
2018-11-27T08:56:17.072Z,4.00
2018-11-27T08:58:47.628Z,4.00
2018-11-27T09:01:17.623Z,4.00
2018-11-27T09:03:48.094Z,4.00
2018-11-27T09:06:17.497Z,4.10
2018-11-27T09:08:53.822Z,4.10
2018-11-27T09:11:23.043Z,4.10
2018-11-27T09:13:52.282Z,4.20
2018-11-27T09:16:21.466Z,4.20
2018-11-27T09:18:52.649Z,4.30
2018-11-27T09:21:21.836Z,4.30
2018-11-27T09:23:52.004Z,4.20
2018-11-27T09:26:21.519Z,4.30
2018-11-27T09:28:50.646Z,4.30
2018-11-27T09:31:20.000Z,4.30
2018-11-27T09:33:49.322Z,4.40
2018-11-27T09:36:18.628Z,4.40
2018-11-27T09:38:48.216Z,4.40
2018-11-27T09:41:23.927Z,4.50
2018-11-27T09:43:53.884Z,4.50
2018-11-27T09:46:23.100Z,4.50
2018-11-27T09:48:54.082Z,4.50
2018-11-27T09:51:23.329Z,4.50
2018-11-27T09:53:52.735Z,4.60
2018-11-27T09:56:22.074Z,4.60
2018-11-27T09:58:52.583Z,4.60
2018-11-27T10:01:21.558Z,4.60
2018-11-27T10:03:50.895Z,4.60
2018-11-27T10:06:20.220Z,4.60
2018-11-27T10:08:50.791Z,4.70
2018-11-27T10:11:21.419Z,4.70
2018-11-27T10:13:50.953Z,4.70
2018-11-27T10:16:20.883Z,4.70
2018-11-27T10:18:50.794Z,4.70
2018-11-27T10:21:20.851Z,4.80
2018-11-27T10:23:50.509Z,4.80
2018-11-27T10:26:19.994Z,4.90
2018-11-27T10:28:49.350Z,4.90
2018-11-27T10:31:18.722Z,4.90
2018-11-27T10:33:48.089Z,4.90
2018-11-27T10:36:17.899Z,5.00
2018-11-27T10:38:47.185Z,5.00
2018-11-27T10:41:17.453Z,5.10
2018-11-27T10:43:47.670Z,5.10
2018-11-27T10:46:16.155Z,5.10
2018-11-27T10:48:46.320Z,5.10
2018-11-27T10:51:20.378Z,5.10
2018-11-27T10:53:49.520Z,5.10
2018-11-27T10:56:20.195Z,5.20
2018-11-27T10:58:49.428Z,5.20
2018-11-27T11:01:23.924Z,5.20
2018-11-27T11:03:53.125Z,5.20
2018-11-27T11:06:22.720Z,5.30
2018-11-27T11:08:52.024Z,5.30
2018-11-27T11:11:23.642Z,5.30
2018-11-27T11:13:53.243Z,5.40
2018-11-27T11:16:25.470Z,5.40
2018-11-27T11:18:55.114Z,5.40
2018-11-27T11:21:28.638Z,5.40
2018-11-27T11:23:59.095Z,5.40
2018-11-27T11:26:28.382Z,5.40
2018-11-27T11:28:58.245Z,5.50
2018-11-27T11:31:28.444Z,5.50
2018-11-27T11:33:57.733Z,5.50
2018-11-27T11:36:27.049Z,5.50
2018-11-27T11:38:57.664Z,5.50
2018-11-27T11:41:31.294Z,5.50
2018-11-27T11:43:56.319Z,5.40
2018-11-27T11:46:25.927Z,5.50
2018-11-27T11:48:55.125Z,5.50
2018-11-27T11:51:24.314Z,5.50
2018-11-27T11:53:53.701Z,5.50
2018-11-27T11:56:28.684Z,5.60
2018-11-27T11:58:57.943Z,5.60
2018-11-27T12:01:27.226Z,5.70
2018-11-27T12:03:56.539Z,5.70
2018-11-27T12:06:33.768Z,5.60
2018-11-27T12:09:03.119Z,5.60
2018-11-27T12:11:33.853Z,5.60
2018-11-27T12:14:03.253Z,5.60
2018-11-27T12:16:35.305Z,5.60
2018-11-27T12:19:05.734Z,5.60
2018-11-27T12:21:39.998Z,5.50
2018-11-27T12:24:09.487Z,5.50
2018-11-27T12:26:39.704Z,5.40
2018-11-27T12:29:10.129Z,5.40
2018-11-27T12:31:39.464Z,5.40
2018-11-27T12:34:09.089Z,5.40
2018-11-27T12:36:38.322Z,5.30
2018-11-27T12:39:09.225Z,5.30
2018-11-27T12:41:38.494Z,5.30
2018-11-27T12:44:10.474Z,5.30
2018-11-27T12:46:41.497Z,5.30
2018-11-27T12:49:10.804Z,5.30
2018-11-27T12:51:40.783Z,5.20
2018-11-27T12:54:17.003Z,5.30
2018-11-27T12:56:46.259Z,5.30
2018-11-27T12:59:28.293Z,5.30
2018-11-27T13:01:57.650Z,5.30
2018-11-27T13:04:26.928Z,5.30
2018-11-27T13:06:57.622Z,5.30
2018-11-27T13:09:26.898Z,5.30
2018-11-27T13:11:56.335Z,5.30
2018-11-27T13:14:27.714Z,5.20
2018-11-27T13:16:57.423Z,5.30
2018-11-27T13:19:27.772Z,5.30
2018-11-27T13:21:57.078Z,5.20
2018-11-27T13:24:26.336Z,5.20
2018-11-27T13:26:55.654Z,5.30
2018-11-27T13:29:25.751Z,5.30
2018-11-27T13:31:55.374Z,5.30
2018-11-27T13:34:24.657Z,5.20
2018-11-27T13:36:55.139Z,5.20
2018-11-27T13:39:42.037Z,5.20
2018-11-27T13:42:12.779Z,5.20
2018-11-27T13:44:44.341Z,5.10
2018-11-27T13:47:15.488Z,5.10
2018-11-27T13:49:44.829Z,5.10
2018-11-27T13:52:15.553Z,5.10
2018-11-27T13:54:44.902Z,5.10
2018-11-27T13:57:14.901Z,5.10
2018-11-27T13:59:57.470Z,5.10
2018-11-27T14:02:26.786Z,5.10
2018-11-27T14:04:56.067Z,5.00
2018-11-27T14:07:26.162Z,5.00
2018-11-27T14:09:58.392Z,5.00
2018-11-27T14:12:27.692Z,5.00
2018-11-27T14:14:56.953Z,5.00
2018-11-27T14:17:26.213Z,5.00
2018-11-27T14:19:55.768Z,5.00
2018-11-27T14:22:26.818Z,5.00
2018-11-27T14:24:56.235Z,5.00
2018-11-27T14:27:31.326Z,5.00
2018-11-27T14:30:00.756Z,5.00
2018-11-27T14:32:30.223Z,5.00
2018-11-27T14:34:59.955Z,5.00
2018-11-27T14:37:31.013Z,4.90
2018-11-27T14:40:01.214Z,5.00
2018-11-27T14:42:31.336Z,4.90
2018-11-27T14:45:03.033Z,5.00
2018-11-27T14:47:34.160Z,4.90
2018-11-27T14:50:04.254Z,4.90
2018-11-27T14:52:34.327Z,4.90
2018-11-27T14:55:04.016Z,4.90
2018-11-27T14:57:33.372Z,4.90
2018-11-27T15:00:03.751Z,4.90
2018-11-27T15:02:33.118Z,4.90
2018-11-27T15:05:03.035Z,4.90
2018-11-27T15:07:33.721Z,4.90
2018-11-27T15:10:14.968Z,4.90
2018-11-27T15:12:45.223Z,4.90
2018-11-27T15:15:16.989Z,4.80
2018-11-27T15:17:46.879Z,4.80
2018-11-27T15:20:21.963Z,4.90
2018-11-27T15:22:53.563Z,4.80
2018-11-27T15:25:23.205Z,4.80
2018-11-27T15:27:52.502Z,4.80
2018-11-27T15:30:28.422Z,4.80
2018-11-27T15:33:00.756Z,4.70
2018-11-27T15:35:30.198Z,4.70
2018-11-27T15:38:00.262Z,4.70
2018-11-27T15:40:31.604Z,4.70
2018-11-27T15:43:01.470Z,4.70
2018-11-27T15:45:34.192Z,4.70
2018-11-27T15:48:05.665Z,4.60
2018-11-27T15:50:36.306Z,4.60
2018-11-27T15:53:05.974Z,4.60
2018-11-27T15:55:37.934Z,4.60
2018-11-27T15:58:15.901Z,4.60
2018-11-27T16:00:45.709Z,4.60
2018-11-27T16:03:15.119Z,4.60
2018-11-27T16:05:46.732Z,4.60
2018-11-27T16:08:22.324Z,4.60
2018-11-27T16:10:52.602Z,4.60
2018-11-27T16:13:21.955Z,4.60
2018-11-27T16:15:54.538Z,4.60
2018-11-27T16:18:26.212Z,4.60
2018-11-27T16:20:55.492Z,4.60
2018-11-27T16:23:25.817Z,4.60
2018-11-27T16:25:55.666Z,4.60
2018-11-27T16:28:26.798Z,4.60
2018-11-27T16:30:57.123Z,4.60
2018-11-27T16:33:27.830Z,4.60
2018-11-27T16:36:04.088Z,4.60
2018-11-27T16:38:33.514Z,4.60
2018-11-27T16:41:04.329Z,4.60
2018-11-27T16:43:34.915Z,4.60
2018-11-27T16:46:04.363Z,4.60
2018-11-27T16:48:34.767Z,4.60
2018-11-27T16:51:04.209Z,4.60
2018-11-27T16:53:33.667Z,4.60
2018-11-27T16:56:03.361Z,4.50
2018-11-27T16:58:34.314Z,4.50
2018-11-27T17:01:08.991Z,4.50
2018-11-27T17:03:33.555Z,4.50
2018-11-27T17:06:03.012Z,4.50
2018-11-27T17:08:34.777Z,4.50
2018-11-27T17:11:05.983Z,4.50
2018-11-27T17:13:35.330Z,4.50
2018-11-27T17:16:04.953Z,4.50
2018-11-27T17:18:34.443Z,4.50
2018-11-27T17:21:05.981Z,4.50
2018-11-27T17:23:36.428Z,4.50
2018-11-27T17:26:06.592Z,4.50
2018-11-27T17:28:36.383Z,4.50
2018-11-27T17:31:09.903Z,4.50
2018-11-27T17:33:44.336Z,4.50
2018-11-27T17:36:13.879Z,4.50
2018-11-27T17:38:43.620Z,4.50
2018-11-27T17:41:13.581Z,4.50
2018-11-27T17:43:43.430Z,4.50
2018-11-27T17:46:22.772Z,4.40
2018-11-27T17:48:53.649Z,4.40
2018-11-27T17:51:24.056Z,4.40
2018-11-27T17:53:54.892Z,4.40
2018-11-27T17:56:26.218Z,4.30
2018-11-27T17:58:56.939Z,4.30
2018-11-27T18:01:29.657Z,4.30
2018-11-27T18:04:01.797Z,4.30
2018-11-27T18:06:33.577Z,4.20
2018-11-27T18:09:04.242Z,4.20
2018-11-27T18:11:40.621Z,4.20
2018-11-27T18:14:14.825Z,4.20
2018-11-27T18:16:45.304Z,4.10
2018-11-27T18:19:17.496Z,4.10
2018-11-27T18:21:48.333Z,4.10
2018-11-27T18:24:18.968Z,4.00
2018-11-27T18:26:49.257Z,4.00
2018-11-27T18:29:24.374Z,4.00
2018-11-27T18:31:59.821Z,3.90
2018-11-27T18:34:30.212Z,3.90
2018-11-27T18:37:01.123Z,3.80
2018-11-27T18:39:30.786Z,3.80
2018-11-27T18:42:00.494Z,3.70
2018-11-27T18:44:32.382Z,3.60
2018-11-27T18:47:10.431Z,3.50
2018-11-27T18:49:42.998Z,3.40
2018-11-27T18:52:13.135Z,3.30
2018-11-27T18:54:44.087Z,3.20
2018-11-27T18:57:13.567Z,3.10
2018-11-27T18:59:43.182Z,3.00
2018-11-27T19:02:13.800Z,2.90
2018-11-27T19:04:43.257Z,2.80
2018-11-27T19:07:12.908Z,2.70
2018-11-27T19:09:44.012Z,2.70
2018-11-27T19:12:18.266Z,2.60
2018-11-27T19:14:53.818Z,2.50
2018-11-27T19:17:24.065Z,2.50
2018-11-27T19:19:54.541Z,2.40
2018-11-27T19:22:25.205Z,2.30
2018-11-27T19:25:02.653Z,2.20
2018-11-27T19:27:33.717Z,2.10
2018-11-27T19:30:05.176Z,2.10
2018-11-27T19:32:38.449Z,2.00
2018-11-27T19:35:09.806Z,1.90
2018-11-27T19:37:45.048Z,1.90
2018-11-27T19:40:16.062Z,1.90
2018-11-27T19:42:48.920Z,1.90
2018-11-27T19:45:28.098Z,1.80
2018-11-27T19:48:00.525Z,1.90
2018-11-27T19:50:30.832Z,1.90
2018-11-27T19:53:02.741Z,1.80
2018-11-27T19:55:35.108Z,1.80
2018-11-27T19:58:06.986Z,1.80
2018-11-27T20:09:20.553Z,1.70
2018-11-27T20:11:51.061Z,1.60
2018-11-27T20:14:20.638Z,1.50
2018-11-27T20:16:52.729Z,1.40
2018-11-27T20:19:23.281Z,1.40
2018-11-27T20:21:53.889Z,1.30
2018-11-27T20:24:25.021Z,1.30
2018-11-27T20:26:56.740Z,1.20
2018-11-27T20:29:28.464Z,1.10
2018-11-27T20:33:09.894Z,1.10
2018-11-27T20:35:43.739Z,1.00
2018-11-27T20:41:01.581Z,0.80
2018-11-27T20:43:33.346Z,0.80
2018-11-27T20:46:09.621Z,0.70
2018-11-27T21:05:52.107Z,0.40
2018-11-27T21:08:44.730Z,0.40
2018-11-27T21:14:26.318Z,0.50
2018-11-27T21:16:55.563Z,0.50
2018-11-27T21:19:25.824Z,0.60
2018-11-27T21:21:55.703Z,0.60
2018-11-27T21:24:27.613Z,0.60
2018-11-27T21:26:57.030Z,0.60
2018-11-27T21:29:27.156Z,0.70
2018-11-27T21:32:00.855Z,0.60
2018-11-27T21:34:31.300Z,0.60
2018-11-27T21:37:02.283Z,0.50
2018-11-27T21:39:31.738Z,0.50
2018-11-27T21:42:02.478Z,0.50
2018-11-27T21:46:14.005Z,0.50
2018-11-27T21:48:58.306Z,0.50
2018-11-27T21:51:29.566Z,0.60
2018-11-27T21:56:44.121Z,0.50
2018-11-27T21:59:15.961Z,0.40
2018-11-27T22:01:52.185Z,0.50
2018-11-27T22:04:25.689Z,0.50
2018-11-27T22:06:54.885Z,0.50
2018-11-27T22:09:25.084Z,0.50
2018-11-27T22:11:54.872Z,0.60
2018-11-27T22:14:26.992Z,0.60
2018-11-27T22:16:56.014Z,0.60
2018-11-27T22:19:24.931Z,0.60
2018-11-27T22:21:54.026Z,0.70
2018-11-27T22:24:23.227Z,0.70
2018-11-27T22:26:52.421Z,0.60
2018-11-27T22:29:21.732Z,0.60
2018-11-27T22:31:51.813Z,0.60
2018-11-27T22:34:20.871Z,0.60
2018-11-27T22:36:51.011Z,0.60
2018-11-27T22:39:20.058Z,0.60
2018-11-27T22:41:49.449Z,0.60
2018-11-27T22:44:18.418Z,0.50
2018-11-27T22:46:48.194Z,0.60
2018-11-27T22:49:17.485Z,0.60
2018-11-27T22:51:48.007Z,0.60
2018-11-27T22:54:17.184Z,0.60
2018-11-27T22:56:46.500Z,0.50
2018-11-27T22:59:15.536Z,0.50
2018-11-27T23:01:45.424Z,0.40
2018-11-27T23:04:14.427Z,0.40
2018-11-27T23:06:43.666Z,0.40
2018-11-27T23:09:12.912Z,0.40
2018-11-27T23:11:42.343Z,0.40
2018-11-27T23:14:11.450Z,0.40
2018-11-27T23:16:40.507Z,0.30
2018-11-27T23:19:09.483Z,0.20
2018-11-27T23:21:38.490Z,0.20
2018-11-27T23:24:08.065Z,0.10
2018-11-27T23:26:38.555Z,0.10
2018-11-27T23:29:07.723Z,0.00
2018-11-27T23:31:36.734Z,0.00
2018-11-27T23:34:05.935Z,0.00
2018-11-27T23:36:35.940Z,-0.10
2018-11-27T23:39:06.802Z,-0.10
2018-11-27T23:41:35.968Z,-0.10
2018-11-27T23:44:04.984Z,-0.10
2018-11-27T23:46:34.661Z,-0.10
2018-11-27T23:49:04.587Z,-0.10
2018-11-27T23:51:34.310Z,-0.10
2018-11-27T23:54:03.968Z,-0.10
2018-11-27T23:56:32.883Z,-0.10
2018-11-27T23:59:02.031Z,-0.20
